Flight Track Log - Related Links

Times and Time Zones

All times are in EDT time to prevent confusion due to time zone crossing. See the EGF4393 flight status page for this flight to view local times or setup timezone preferences in your user account.


Time Position Orientation Groundspeed Altitude Reporting Facility
EDT Latitude Longitude Course Direction KTS MPH feet Rate Location/Type
Sun 03:40:50 PM 41.9319 -87.9003 352° North 156 180 1,900  Level Chicago Center
Sun 03:41:52 PM 41.9414 -87.8331 79° East 211 243 4,000 1,776 Climbing Chicago Center
Sun 03:42:55 PM 42.0128 -87.8300 North 256 295 5,600 1,920 Climbing Chicago Center
Sun 03:43:57 PM 42.0911 -87.8122 10° North 283 326 8,000 2,565 Climbing Chicago Center
Sun 03:44:59 PM 42.1631 -87.7783 19° North 277 319 10,900 2,419 Climbing Chicago Center
Sun 03:46:00 PM 42.4770 -88.0621 352° North  Level FlightAware Approximate
Sun 03:46:01 PM 42.2522 -87.7764 North 274 315 13,000  Level Chicago Center
Sun 03:47:03 PM 42.3322 -87.8069 344° North 307 353 13,800 774 Climbing Chicago Center
Sun 03:48:05 PM 42.4161 -87.8689 331° Northwest 340 391 14,600 726 Climbing Chicago Center
Sun 03:49:07 PM 42.5097 -87.9369 332° Northwest 373 429 15,300 677 Climbing Chicago Center
Sun 03:50:09 PM 42.6094 -88.0053 333° Northwest 401 461 16,000 726 Climbing Chicago Center
Sun 03:51:11 PM 42.7394 -88.0483 346° North 412 474 16,800 726 Climbing Chicago Center
Sun 03:52:13 PM 42.8550 -88.0883 346° North 424 488 17,500 677 Climbing Chicago Center
Sun 03:53:15 PM 42.9703 -88.1300 345° North 427 491 18,200 823 Climbing Chicago Center
Sun 03:54:17 PM 43.0814 -88.1894 339° North 429 494 19,200 1,056 Climbing Chicago Center
Sun 03:55:20 PM 43.1814 -88.2736 328° Northwest 424 488 20,400 960 Climbing Chicago Center
Sun 03:56:22 PM 43.2997 -88.3747 328° Northwest 429 494 21,200 726 Climbing Chicago Center
Sun 03:57:24 PM 43.4050 -88.4639 328° Northwest 436 502 21,900 387 Climbing Chicago Center
Sun 03:58:26 PM 43.5033 -88.5478 328° Northwest 443 510 22,000 48 Climbing Chicago Center
Sun 03:59:28 PM 43.6281 -88.6550 328° Northwest 452 520 22,000 -355 Level Chicago Center
Sun 04:01:32 PM 43.8261 -88.8256 328° Northwest 418 481 20,900 -968 Descending Chicago Center
Sun 04:02:34 PM 43.9286 -88.9153 328° Northwest 429 494 19,000 -1,839 Descending Chicago Center
Sun 04:03:36 PM 44.0303 -89.0033 328° Northwest 432 497 17,100 -2,032 Descending Chicago Center
Sun 04:04:38 PM 44.1422 -89.1014 328° Northwest 410 472 14,800 -1,933 Descending Chicago Center
Sun 04:05:06 PM 44.1811 -89.1381 326° Northwest 414 476 14,200 -533 Descending Minneapolis Center
Sun 04:06:08 PM 44.2794 -89.2239 328° Northwest 401 461 14,000 -919 Descending Minneapolis Center
Sun 04:07:10 PM 44.3725 -89.3056 328° Northwest 381 438 12,300 -1,694 Descending Minneapolis Center
Sun 04:08:12 PM 44.4572 -89.3806 328° Northwest 350 403 10,500 -1,645 Descending Minneapolis Center
Sun 04:09:14 PM 44.5328 -89.4483 327° Northwest 311 358 8,900 -1,790 Descending Minneapolis Center
Sun 04:10:16 PM 44.6033 -89.5117 327° Northwest 290 334 6,800 -2,032 Descending Minneapolis Center
Sun 04:11:18 PM 44.6711 -89.5731 327° Northwest 281 323 4,700 -1,839 Descending Minneapolis Center
Sun 04:12:20 PM 44.7275 -89.6461 317° Northwest 267 307 3,000 -968 Descending Minneapolis Center
Sun 04:13:22 PM 44.7350 -89.7269 277° West 222 255 2,700 -484 Descending Minneapolis Center
Sun 04:14:24 PM 44.7717 -89.7308 356° North 163 188 2,000 -384 Descending Minneapolis Center
Sun 04:15:27 PM 44.7806 -89.6792 76° East 156 180 1,900 -95 Descending Minneapolis Center

Login

Don't have an account? Register now (free) for customized features, flight alerts, and more!